Time;durP1;ratioP1;P1;durP2;ratioP2;P2;SDS_P1;SDS_P2;PMS_P1;PMS_P2;Temp;Humidity;BMP_temperature;BMP_pressure;BME280_temperature;BME280_humidity;BME280_pressure;Samples;Min_cycle;Max_cycle;Signal;HPM_P1;HPM_P2
2023/01/03 00:01:39;;;;;;;30.10;27.40;;;;;;;6.00;100.00;98488.23;104859;1327;22057;-84
2023/01/03 00:04:08;;;;;;;33.00;29.90;;;;;;;6.04;100.00;98485.80;104891;1327;22212;-84
2023/01/03 00:06:43;;;;;;;34.10;28.90;;;;;;;6.02;100.00;98479.31;104951;1327;22079;-84
2023/01/03 00:09:15;;;;;;;32.30;29.10;;;;;;;6.00;100.00;98472.66;104671;1325;22195;-84
2023/01/03 00:14:36;;;;;;;29.70;26.80;;;;;;;5.98;100.00;98471.10;104834;1301;22194;-85
2023/01/03 00:17:05;;;;;;;31.50;28.40;;;;;;;5.98;100.00;98472.87;104781;1322;22879;-85
2023/01/03 00:19:39;;;;;;;29.20;26.50;;;;;;;5.99;100.00;98475.22;104724;1308;22196;-86
2023/01/03 00:22:10;;;;;;;30.80;28.00;;;;;;;6.00;100.00;98477.95;104932;1326;22881;-86
2023/01/03 00:24:39;;;;;;;31.60;28.80;;;;;;;6.02;100.00;98477.33;104841;1326;22177;-86
2023/01/03 00:27:07;;;;;;;34.60;31.40;;;;;;;6.02;100.00;98478.45;104931;1327;22115;-84
2023/01/03 00:29:35;;;;;;;30.90;28.20;;;;;;;6.00;100.00;98485.77;104847;1321;22269;-84
2023/01/03 00:32:05;;;;;;;31.40;28.40;;;;;;;6.01;100.00;98487.77;104754;1322;23356;-83
2023/01/03 00:34:34;;;;;;;30.00;27.10;;;;;;;6.03;100.00;98484.14;104895;1326;22192;-84
2023/01/03 00:37:04;;;;;;;30.30;27.60;;;;;;;6.05;100.00;98482.23;104857;1327;22897;-84
2023/01/03 00:39:33;;;;;;;29.40;26.80;;;;;;;6.06;100.00;98487.33;104956;1326;22201;-84
2023/01/03 00:42:01;;;;;;;31.80;29.00;;;;;;;6.06;100.00;98490.30;104859;1327;22203;-84
2023/01/03 00:44:29;;;;;;;27.40;25.10;;;;;;;6.07;100.00;98493.96;104964;1311;22195;-84
2023/01/03 00:46:58;;;;;;;26.90;24.40;;;;;;;6.07;100.00;98492.90;105096;1305;22080;-84
2023/01/03 00:49:26;;;;;;;28.60;26.10;;;;;;;6.14;100.00;98489.64;105134;1320;22143;-86
2023/01/03 00:51:54;;;;;;;27.90;25.60;;;;;;;6.15;100.00;98489.44;104964;1327;22166;-86
2023/01/03 00:54:22;;;;;;;26.30;24.10;;;;;;;6.20;100.00;98496.48;104919;1327;22152;-86
2023/01/03 00:56:51;;;;;;;27.10;24.60;;;;;;;6.26;100.00;98486.94;104913;1322;22107;-85
2023/01/03 00:59:20;;;;;;;27.50;24.80;;;;;;;6.28;100.00;98485.63;104798;1327;22109;-85
2023/01/03 01:01:53;;;;;;;25.60;23.40;;;;;;;6.28;100.00;98490.92;104870;1327;22148;-85
2023/01/03 01:04:28;;;;;;;27.60;25.30;;;;;;;6.29;100.00;98498.90;104956;1326;22123;-86
2023/01/03 01:06:59;;;;;;;28.40;26.00;;;;;;;6.23;100.00;98501.20;104830;1327;22012;-86
2023/01/03 01:09:32;;;;;;;27.30;25.00;;;;;;;6.22;100.00;98514.85;105308;1319;22146;-85
2023/01/03 01:12:01;;;;;;;25.90;23.60;;;;;;;6.21;100.00;98521.70;104915;1327;22061;-84
2023/01/03 01:14:32;;;;;;;25.30;23.10;;;;;;;6.19;100.00;98527.30;104906;1327;22117;-84
2023/01/03 01:17:03;;;;;;;25.90;23.60;;;;;;;6.17;100.00;98524.82;104926;1327;22694;-85
2023/01/03 01:19:34;;;;;;;26.00;23.50;;;;;;;6.18;100.00;98536.33;105348;1320;22065;-85
2023/01/03 01:22:02;;;;;;;24.40;22.20;;;;;;;6.17;100.00;98534.34;104845;1327;22788;-84
2023/01/03 01:24:31;;;;;;;26.20;24.00;;;;;;;6.17;100.00;98535.94;105269;1320;22184;-83
2023/01/03 01:26:59;;;;;;;24.70;22.50;;;;;;;6.17;100.00;98531.77;104921;1327;22212;-84
2023/01/03 01:29:28;;;;;;;25.90;23.40;;;;;;;6.18;100.00;98530.29;104832;1321;22256;-84
2023/01/03 01:31:56;;;;;;;25.50;23.30;;;;;;;6.16;100.00;98527.22;104924;1327;22174;-85
2023/01/03 01:34:24;;;;;;;25.10;22.90;;;;;;;6.15;100.00;98520.73;105431;1305;22081;-84
2023/01/03 01:36:52;;;;;;;24.40;22.20;;;;;;;6.18;100.00;98524.89;104865;1317;22113;-85
2023/01/03 01:39:23;;;;;;;27.30;24.90;;;;;;;6.20;100.00;98526.34;104883;1326;22252;-86
2023/01/03 01:45:02;;;;;;;24.60;22.40;;;;;;;6.18;100.00;98524.83;104940;1327;22194;-85
2023/01/03 01:47:46;;;;;;;22.20;20.20;;;;;;;6.21;100.00;98519.83;105147;1307;22143;-85
2023/01/03 01:50:39;;;;;;;22.30;20.30;;;;;;;6.25;100.00;98517.98;104899;1326;22912;-85
2023/01/03 01:53:16;;;;;;;23.60;21.50;;;;;;;6.26;100.00;98523.89;104970;1326;22088;-85
2023/01/03 01:55:56;;;;;;;25.20;23.10;;;;;;;6.24;100.00;98521.34;104907;1327;22208;-84
2023/01/03 01:58:30;;;;;;;24.90;22.70;;;;;;;6.23;100.00;98524.06;104951;1327;22224;-84
2023/01/03 02:00:58;;;;;;;;;;;;;;;6.23;100.00;98524.44;104851;1327;22341;-84
2023/01/03 02:03:26;;;;;;;23.10;20.90;;;;;;;6.23;100.00;98524.29;104926;1326;22118;-84
2023/01/03 02:05:56;;;;;;;22.50;20.30;;;;;;;6.26;100.00;98529.81;104968;1326;22843;-84
2023/01/03 02:08:25;;;;;;;23.90;21.40;;;;;;;6.28;100.00;98525.13;104864;1327;22223;-85
2023/01/03 02:11:21;;;;;;;24.40;22.20;;;;;;;6.28;100.00;98524.22;104908;1322;23076;-84
2023/01/03 02:14:01;;;;;;;24.10;22.10;;;;;;;6.27;100.00;98520.79;105437;1320;22089;-84
2023/01/03 02:16:59;;;;;;;24.30;22.10;;;;;;;6.29;100.00;98524.64;104917;1327;22185;-86
2023/01/03 02:19:48;;;;;;;22.70;20.70;;;;;;;6.32;100.00;98526.72;105369;1309;22537;-85
2023/01/03 02:23:05;;;;;;;25.40;23.20;;;;;;;6.35;100.00;98524.92;105423;1318;22054;-86
2023/01/03 02:26:05;;;;;;;25.90;23.70;;;;;;;6.35;100.00;98531.29;104942;1326;22158;-84
2023/01/03 02:28:49;;;;;;;22.50;20.50;;;;;;;6.34;100.00;98535.23;104923;1327;22428;-84
2023/01/03 02:31:44;;;;;;;24.50;22.30;;;;;;;6.35;100.00;98537.01;104922;1326;22900;-84
2023/01/03 02:34:26;;;;;;;24.70;22.50;;;;;;;6.38;100.00;98543.66;104949;1327;22096;-84
2023/01/03 02:36:59;;;;;;;24.10;21.80;;;;;;;6.41;100.00;98543.11;104939;1327;22317;-84
2023/01/03 02:39:35;;;;;;;23.50;21.40;;;;;;;6.43;100.00;98549.65;104931;1326;22131;-84
2023/01/03 02:45:29;;;;;;;22.00;20.00;;;;;;;6.44;100.00;98550.27;105013;1326;22851;-84
2023/01/03 02:48:08;;;;;;;21.40;19.40;;;;;;;6.46;100.00;98549.95;105482;1309;22081;-86
2023/01/03 02:50:53;;;;;;;21.50;19.60;;;;;;;6.49;100.00;98553.02;105017;1327;22711;-85
2023/01/03 02:53:28;;;;;;;;;;;;;;;6.50;100.00;98552.88;104950;1327;22334;-85
2023/01/03 02:56:28;;;;;;;21.00;19.20;;;;;;;6.47;100.00;98562.91;104988;1320;22232;-85
2023/01/03 02:59:05;;;;;;;21.70;19.60;;;;;;;6.46;100.00;98564.04;105342;1312;22729;-85
2023/01/03 03:01:35;;;;;;;19.60;17.70;;;;;;;6.50;100.00;98567.66;104960;1327;22075;-86
2023/01/03 03:04:05;;;;;;;20.30;18.50;;;;;;;6.53;100.00;98573.30;104951;1326;22093;-85
2023/01/03 03:13:28;;;;;;;19.20;17.50;;;;;;;6.53;100.00;98599.16;104938;1326;22109;-85
2023/01/03 03:16:51;;;;;;;20.10;18.20;;;;;;;6.54;100.00;98605.70;104872;1327;22544;-86
2023/01/03 03:25:29;;;;;;;20.40;18.50;;;;;;;6.57;100.00;98619.18;104940;1327;22082;-85
2023/01/03 03:30:52;;;;;;;25.20;22.80;;;;;;;6.58;100.00;98631.77;104885;1326;22199;-87
2023/01/03 03:33:23;;;;;;;22.20;20.00;;;;;;;6.60;100.00;98630.98;105432;1320;22115;-86
2023/01/03 03:36:14;;;;;;;24.20;21.90;;;;;;;6.64;100.00;98627.42;105174;1302;22062;-86
2023/01/03 03:45:33;;;;;;;27.20;24.40;;;;;;;6.66;100.00;98627.60;104870;1327;22073;-88
2023/01/03 03:48:16;;;;;;;26.10;23.70;;;;;;;6.66;100.00;98632.48;104915;1327;22219;-86
2023/01/03 03:50:54;;;;;;;24.70;22.40;;;;;;;6.70;100.00;98633.68;104955;1326;22205;-87
2023/01/03 03:53:26;;;;;;;27.20;24.50;;;;;;;6.74;100.00;98629.43;104927;1319;22089;-87
2023/01/03 03:56:09;;;;;;;27.20;24.60;;;;;;;6.75;100.00;98635.88;104947;1327;22170;-87
2023/01/03 03:58:52;;;;;;;27.30;24.50;;;;;;;6.75;100.00;98637.48;104832;1327;22661;-87
2023/01/03 04:01:22;;;;;;;27.30;24.80;;;;;;;6.75;100.00;98637.22;104916;1327;22746;-86
2023/01/03 04:03:54;;;;;;;26.50;24.00;;;;;;;6.76;100.00;98637.33;104924;1327;22208;-87
2023/01/03 04:06:37;;;;;;;28.20;25.40;;;;;;;6.79;100.00;98639.13;105194;1323;22251;-87
2023/01/03 04:09:07;;;;;;;28.30;25.50;;;;;;;6.81;100.00;98641.23;104938;1327;22154;-87
2023/01/03 04:11:35;;;;;;;30.40;27.60;;;;;;;6.81;99.94;98641.06;104981;1326;22713;-87
2023/01/03 04:14:30;;;;;;;27.80;25.20;;;;;;;6.81;99.96;98647.33;104858;1327;22189;-84
2023/01/03 04:16:58;;;;;;;28.80;25.70;;;;;;;6.83;99.88;98655.71;105455;1308;22101;-85
2023/01/03 04:19:27;;;;;;;31.90;28.80;;;;;;;6.84;99.84;98658.23;104956;1327;22217;-84
2023/01/03 04:21:55;;;;;;;36.00;32.60;;;;;;;6.86;99.87;98665.27;105005;1327;22183;-83
2023/01/03 04:24:23;;;;;;;34.70;31.30;;;;;;;6.85;99.86;98667.02;104951;1327;22110;-85
2023/01/03 04:26:51;;;;;;;35.00;31.60;;;;;;;6.86;99.83;98665.11;104945;1320;22561;-85
2023/01/03 04:29:20;;;;;;;36.80;33.20;;;;;;;6.86;99.83;98668.97;104882;1326;22110;-85
2023/01/03 04:31:48;;;;;;;34.40;31.30;;;;;;;6.86;99.69;98679.09;104968;1327;22808;-85
2023/01/03 04:34:16;;;;;;;33.10;29.80;;;;;;;6.88;99.85;98679.16;105279;1320;22107;-86
2023/01/03 04:36:44;;;;;;;34.60;31.20;;;;;;;6.89;99.71;98675.36;104873;1327;22100;-85
2023/01/03 04:39:12;;;;;;;33.00;29.60;;;;;;;6.82;99.62;98678.25;104927;1327;22122;-85
2023/01/03 04:41:40;;;;;;;30.10;27.30;;;;;;;6.79;99.64;98674.64;104884;1327;22148;-86
2023/01/03 04:44:08;;;;;;;27.20;24.70;;;;;;;6.76;99.64;98672.23;104914;1327;22104;-86
2023/01/03 04:46:40;;;;;;;29.80;27.00;;;;;;;6.76;99.76;98675.25;104960;1324;22777;-86
2023/01/03 04:49:13;;;;;;;29.70;26.80;;;;;;;6.74;99.75;98674.48;105448;1319;22062;-86
2023/01/03 04:51:41;;;;;;;31.70;28.80;;;;;;;6.74;99.65;98674.17;104965;1319;22084;-87
2023/01/03 04:54:09;;;;;;;33.30;30.00;;;;;;;6.72;99.54;98679.19;104970;1326;22195;-86
2023/01/03 04:56:37;;;;;;;31.40;28.30;;;;;;;6.68;99.75;98680.27;104887;1327;22117;-86
2023/01/03 05:02:50;;;;;;;30.90;27.80;;;;;;;6.64;99.43;98678.45;104970;1328;22136;-86
2023/01/03 05:05:18;;;;;;;31.80;28.70;;;;;;;6.62;99.23;98686.96;104856;1333;22085;-87
2023/01/03 05:07:46;;;;;;;31.80;28.50;;;;;;;6.60;99.49;98688.77;104821;1330;22077;-88
2023/01/03 05:10:14;;;;;;;30.70;27.50;;;;;;;6.56;99.63;98684.77;104697;1331;22168;-87
2023/01/03 05:12:58;;;;;;;31.20;28.10;;;;;;;6.54;99.61;98684.43;104977;1326;22691;-87
2023/01/03 05:15:30;;;;;;;31.00;28.00;;;;;;;6.55;99.67;98691.61;105157;1323;22078;-85
2023/01/03 05:17:58;;;;;;;29.90;27.00;;;;;;;6.54;99.35;98691.44;104884;1328;22196;-86
2023/01/03 05:26:06;;;;;;;27.60;25.00;;;;;;;6.45;99.45;98691.98;104874;1327;22132;-87
2023/01/03 05:28:37;;;;;;;25.50;23.10;;;;;;;6.44;99.36;98691.62;104876;1322;22349;-86
2023/01/03 05:31:05;;;;;;;26.20;23.80;;;;;;;6.44;99.34;98701.62;104918;1328;22253;-87
2023/01/03 05:33:33;;;;;;;27.90;25.10;;;;;;;6.43;99.57;98707.38;104925;1329;22104;-87
2023/01/03 05:36:04;;;;;;;27.70;24.90;;;;;;;6.40;99.42;98711.84;104924;1331;22126;-85
2023/01/03 05:38:32;;;;;;;27.50;24.90;;;;;;;6.38;99.49;98717.66;104845;1330;22388;-86
2023/01/03 05:41:00;;;;;;;29.10;26.30;;;;;;;6.35;99.63;98720.48;105178;1322;22124;-86
2023/01/03 05:43:28;;;;;;;29.50;26.60;;;;;;;6.31;99.73;98725.30;104911;1327;22302;-86
2023/01/03 05:45:56;;;;;;;29.50;26.70;;;;;;;6.27;99.82;98727.19;104885;1320;22084;-86
2023/01/03 05:48:24;;;;;;;30.10;27.20;;;;;;;6.25;99.57;98733.89;104856;1332;22148;-84
2023/01/03 05:50:56;;;;;;;30.30;27.40;;;;;;;6.23;99.60;98737.19;104875;1328;22205;-85
2023/01/03 05:57:32;;;;;;;33.70;30.50;;;;;;;6.15;99.66;98746.36;104907;1327;22122;-85
2023/01/03 06:00:03;;;;;;;32.30;29.30;;;;;;;6.13;99.74;98743.45;104931;1327;22167;-85
2023/01/03 06:02:32;;;;;;;35.20;31.80;;;;;;;6.10;99.80;98746.79;104793;1330;22167;-84
2023/01/03 06:05:00;;;;;;;30.80;27.80;;;;;;;6.06;99.70;98748.83;104963;1328;22106;-84
2023/01/03 06:07:29;;;;;;;31.80;28.70;;;;;;;6.05;99.86;98758.27;104963;1327;22783;-84
2023/01/03 06:09:57;;;;;;;32.70;29.50;;;;;;;6.01;99.78;98763.91;104899;1330;22153;-83
2023/01/03 06:12:26;;;;;;;31.70;28.60;;;;;;;6.00;99.78;98766.08;104941;1327;22088;-85
2023/01/03 06:14:54;;;;;;;30.30;27.30;;;;;;;5.99;99.84;98771.20;104942;1321;22121;-85
2023/01/03 06:20:09;;;;;;;33.40;30.20;;;;;;;5.95;100.00;98775.72;104740;1328;22123;-87
2023/01/03 06:22:37;;;;;;;36.30;32.70;;;;;;;5.91;100.00;98777.59;105254;1324;22187;-87
2023/01/03 06:25:05;;;;;;;34.60;31.30;;;;;;;5.90;100.00;98782.55;104926;1327;22008;-85
2023/01/03 06:27:33;;;;;;;34.60;31.10;;;;;;;5.90;100.00;98787.64;105302;1323;22098;-88
2023/01/03 06:30:01;;;;;;;32.20;29.10;;;;;;;5.91;100.00;98792.08;105054;1331;22177;-86
2023/01/03 06:32:29;;;;;;;34.90;31.50;;;;;;;5.93;100.00;98795.13;105459;1311;22079;-86
2023/01/03 06:34:57;;;;;;;36.10;32.60;;;;;;;5.95;100.00;98797.77;104917;1329;22210;-86
2023/01/03 06:37:25;;;;;;;39.30;35.60;;;;;;;5.91;100.00;98800.05;104999;1333;22116;-87
2023/01/03 06:39:53;;;;;;;33.80;30.40;;;;;;;5.88;99.99;98801.52;104920;1328;22103;-88
2023/01/03 06:42:41;;;;;;;36.00;32.40;;;;;;;5.86;100.00;98809.04;104892;1328;22126;-88
2023/01/03 06:53:40;;;;;;;35.20;31.70;;;;;;;5.96;99.95;98827.39;105009;1326;22063;-88
2023/01/03 06:56:08;;;;;;;36.00;32.50;;;;;;;5.99;99.97;98833.05;104946;1325;22161;-88
2023/01/03 06:58:36;;;;;;;36.30;33.10;;;;;;;6.00;100.00;98832.11;105248;1320;22081;-86
2023/01/03 07:01:05;;;;;;;34.50;31.20;;;;;;;5.99;100.00;98833.27;104940;1321;22943;-87
2023/01/03 07:03:33;;;;;;;35.70;32.00;;;;;;;6.02;100.00;98837.42;105025;1311;22881;-86
2023/01/03 07:06:01;;;;;;;34.70;31.30;;;;;;;6.05;100.00;98834.15;105148;1323;22366;-84
2023/01/03 07:08:29;;;;;;;35.00;31.60;;;;;;;6.08;100.00;98837.89;104942;1316;22230;-83
2023/01/03 07:10:57;;;;;;;33.20;30.10;;;;;;;6.10;100.00;98847.17;104958;1326;22810;-86
2023/01/03 07:16:13;;;;;;;34.40;31.10;;;;;;;6.11;100.00;98853.49;104870;1326;22155;-87
2023/01/03 07:18:42;;;;;;;37.30;33.50;;;;;;;6.09;100.00;98855.61;104687;1332;22594;-82
2023/01/03 07:21:13;;;;;;;38.10;34.40;;;;;;;6.08;100.00;98858.64;105227;1315;22847;-86
2023/01/03 07:23:42;;;;;;;35.30;31.90;;;;;;;6.09;100.00;98861.50;104870;1327;22220;-81
2023/01/03 07:26:10;;;;;;;39.70;35.50;;;;;;;6.13;100.00;98862.79;104804;1328;23051;-83
2023/01/03 07:28:38;;;;;;;37.30;33.70;;;;;;;6.19;100.00;98870.83;105115;1311;22219;-83
2023/01/03 07:31:06;;;;;;;39.90;36.00;;;;;;;6.24;100.00;98874.40;105404;1318;22814;-83
2023/01/03 07:33:37;;;;;;;42.20;38.20;;;;;;;6.26;100.00;98875.98;104937;1326;22057;-83
2023/01/03 07:36:09;;;;;;;43.00;38.90;;;;;;;6.28;100.00;98877.19;105139;1320;147048;-83
2023/01/03 07:38:42;;;;;;;42.60;38.30;;;;;;;6.30;100.00;98883.27;104681;1326;22213;-85
2023/01/03 07:41:11;;;;;;;39.30;35.30;;;;;;;6.33;100.00;98881.42;104846;1320;22881;-82
2023/01/03 07:43:43;;;;;;;40.50;36.60;;;;;;;6.36;100.00;98879.86;104916;1327;22938;-82
2023/01/03 07:46:20;;;;;;;39.30;35.40;;;;;;;6.41;100.00;98887.78;104835;1327;22228;-81
2023/01/03 07:48:53;;;;;;;35.20;31.80;;;;;;;6.42;100.00;98891.72;104832;1326;22195;-83
2023/01/03 07:51:22;;;;;;;38.00;34.40;;;;;;;6.42;100.00;98892.84;105212;1318;22134;-83
2023/01/03 07:53:51;;;;;;;39.70;36.10;;;;;;;6.42;100.00;98903.18;105239;1320;22098;-83
2023/01/03 07:56:21;;;;;;;38.00;34.50;;;;;;;6.41;100.00;98907.29;104920;1326;23015;-83
2023/01/03 07:58:50;;;;;;;40.40;36.50;;;;;;;6.41;100.00;98909.42;105010;1312;22150;-83
2023/01/03 08:01:21;;;;;;;41.70;37.40;;;;;;;6.45;100.00;98909.27;105295;1320;22210;-83
2023/01/03 08:03:50;;;;;;;43.10;38.60;;;;;;;6.50;100.00;98912.18;104840;1327;22871;-82
2023/01/03 08:06:21;;;;;;;69.00;61.90;;;;;;;6.53;100.00;98918.06;105238;1320;22155;-83
2023/01/03 08:14:24;;;;;;;57.80;50.70;;;;;;;6.62;100.00;98916.52;104850;1326;22925;-83
2023/01/03 08:16:54;;;;;;;50.70;45.40;;;;;;;6.65;100.00;98916.46;104943;1327;22210;-83
2023/01/03 08:19:23;;;;;;;45.20;40.90;;;;;;;6.72;100.00;98914.61;104968;1318;22965;-83
2023/01/03 08:21:52;;;;;;;45.20;40.70;;;;;;;6.78;100.00;98918.27;104819;1327;22106;-83
2023/01/03 08:24:20;;;;;;;42.20;38.20;;;;;;;6.87;100.00;98922.24;104861;1327;22180;-83
2023/01/03 08:26:48;;;;;;;44.20;40.30;;;;;;;6.97;100.00;98915.88;104833;1327;22214;-83
2023/01/03 08:29:16;;;;;;;41.70;37.80;;;;;;;7.05;100.00;98918.27;104929;1326;22208;-82
2023/01/03 08:31:53;;;;;;;38.70;35.00;;;;;;;7.12;100.00;98916.76;105243;1320;22185;-83
2023/01/03 08:34:24;;;;;;;34.90;31.40;;;;;;;7.18;100.00;98924.33;104935;1326;22837;-82
2023/01/03 08:37:00;;;;;;;35.10;31.80;;;;;;;7.24;100.00;98923.54;104936;1327;22185;-82
2023/01/03 08:39:52;;;;;;;33.90;30.40;;;;;;;7.29;99.97;98924.30;104964;1323;22188;-83
2023/01/03 08:42:22;;;;;;;36.90;33.40;;;;;;;7.37;99.87;98919.64;105438;1304;23264;-83
2023/01/03 08:44:56;;;;;;;33.00;29.90;;;;;;;7.40;100.00;98920.42;104908;1319;22250;-83
2023/01/03 08:47:24;;;;;;;32.10;29.10;;;;;;;7.42;99.73;98921.59;104936;1326;22210;-83
2023/01/03 08:49:54;;;;;;;30.70;27.80;;;;;;;7.44;99.25;98923.97;104881;1327;22207;-83
2023/01/03 08:52:22;;;;;;;34.20;29.10;;;;;;;7.45;99.08;98927.39;104860;1326;22262;-83
2023/01/03 08:54:50;;;;;;;34.50;30.90;;;;;;;7.50;99.37;98929.16;104808;1327;22119;-83
2023/01/03 08:57:18;;;;;;;36.20;32.90;;;;;;;7.51;99.05;98933.91;104822;1327;22200;-82
2023/01/03 08:59:46;;;;;;;41.80;38.00;;;;;;;7.52;98.63;98928.81;104889;1327;22216;-83
2023/01/03 09:02:14;;;;;;;58.00;52.60;;;;;;;7.51;98.90;98938.02;104907;1326;22232;-83
2023/01/03 09:04:42;;;;;;;54.50;49.10;;;;;;;7.51;98.40;98937.88;104956;1326;22192;-83
2023/01/03 09:07:10;;;;;;;53.90;48.40;;;;;;;7.50;98.53;98938.93;104956;1327;22195;-83
2023/01/03 09:09:39;;;;;;;66.90;60.60;;;;;;;7.51;98.26;98940.77;104818;1326;22931;-83
2023/01/03 09:12:07;;;;;;;68.40;62.00;;;;;;;7.52;98.87;98944.73;104918;1327;22855;-83
2023/01/03 09:14:35;;;;;;;60.30;54.20;;;;;;;7.51;98.46;98947.27;104938;1326;22949;-82
2023/01/03 09:17:03;;;;;;;59.40;53.30;;;;;;;7.51;98.38;98950.64;104935;1327;23490;-83
2023/01/03 09:19:31;;;;;;;51.50;46.10;;;;;;;7.54;97.68;98950.72;104945;1326;22258;-83
2023/01/03 09:21:59;;;;;;;42.30;38.10;;;;;;;7.58;97.48;98957.46;104919;1326;22196;-83
2023/01/03 09:24:27;;;;;;;38.80;35.10;;;;;;;7.56;97.69;98957.70;105164;1319;22274;-82
2023/01/03 09:26:55;;;;;;;36.20;33.00;;;;;;;7.54;97.08;98957.91;104944;1326;22215;-83
2023/01/03 09:29:23;;;;;;;31.00;28.00;;;;;;;7.57;97.03;98955.67;104929;1326;22251;-83
2023/01/03 09:31:51;;;;;;;29.90;26.90;;;;;;;7.58;96.88;98956.38;105010;1321;22208;-83
2023/01/03 09:34:19;;;;;;;30.70;27.70;;;;;;;7.63;96.77;98955.79;104946;1326;22276;-83
2023/01/03 09:36:47;;;;;;;33.50;30.20;;;;;;;7.69;96.41;98954.23;104843;1327;22197;-83
2023/01/03 09:39:15;;;;;;;34.60;31.10;;;;;;;7.72;96.31;98949.77;104928;1326;22189;-83
2023/01/03 09:41:43;;;;;;;32.40;29.20;;;;;;;7.77;96.83;98954.27;104955;1327;22932;-84
2023/01/03 09:44:12;;;;;;;46.00;30.00;;;;;;;7.86;96.60;98949.98;104745;1326;22362;-84
2023/01/03 09:46:39;;;;;;;31.00;27.20;;;;;;;7.95;96.70;98955.64;104948;1324;22198;-83
2023/01/03 09:49:12;;;;;;;27.10;24.50;;;;;;;8.01;96.66;98952.49;104929;1326;22218;-83
2023/01/03 10:03:44;;;;;;;24.80;22.40;;;;;;;8.15;94.44;98942.83;104944;1327;22192;-83
2023/01/03 10:06:56;;;;;;;25.30;22.90;;;;;;;8.16;94.64;98939.13;104471;1333;22219;-83
2023/01/03 10:09:36;;;;;;;20.70;18.50;;;;;;;8.25;94.51;98942.38;104476;1325;22148;-83
2023/01/03 10:12:31;;;;;;;17.10;15.20;;;;;;;8.35;93.32;98939.64;104479;1333;22216;-83
2023/01/03 10:14:59;;;;;;;13.70;10.80;;;;;;;8.46;92.83;98933.52;104393;1334;22971;-83
2023/01/03 10:17:41;;;;;;;15.30;12.80;;;;;;;8.54;91.67;98936.02;104482;1333;22288;-83
2023/01/03 10:20:09;;;;;;;15.10;13.50;;;;;;;8.67;91.64;98934.16;104485;1333;22864;-83
2023/01/03 10:22:38;;;;;;;14.90;13.40;;;;;;;8.74;90.65;98935.06;104812;1325;22292;-83
2023/01/03 10:25:06;;;;;;;9.60;8.60;;;;;;;8.75;90.09;98938.36;104805;1323;22096;-84
2023/01/03 10:27:56;;;;;;;8.50;7.70;;;;;;;8.79;88.64;98931.27;104837;1322;22439;-83
2023/01/03 10:30:48;;;;;;;8.10;7.10;;;;;;;8.78;87.28;98937.88;104639;1326;22270;-83
2023/01/03 10:33:46;;;;;;;8.90;7.70;;;;;;;8.73;87.57;98932.48;104765;1324;22192;-84
2023/01/03 10:36:15;;;;;;;9.20;7.80;;;;;;;8.72;88.30;98933.23;104351;1327;22943;-84
2023/01/03 10:38:44;;;;;;;8.70;7.70;;;;;;;8.77;88.25;98934.81;104724;1326;22187;-84
2023/01/03 10:41:29;;;;;;;12.10;10.80;;;;;;;8.85;89.31;98934.70;104564;1327;22102;-84
2023/01/03 10:43:59;;;;;;;9.70;8.30;;;;;;;8.96;87.54;98932.05;104760;1315;22791;-84
2023/01/03 10:46:28;;;;;;;9.20;8.00;;;;;;;8.97;88.25;98932.80;105287;1320;22259;-84
2023/01/03 10:49:17;;;;;;;11.20;8.10;;;;;;;8.99;88.02;98926.09;104860;1327;22287;-84
2023/01/03 10:52:16;;;;;;;8.70;7.60;;;;;;;9.00;85.78;98923.36;104924;1327;22209;-84
2023/01/03 10:54:52;;;;;;;8.30;7.50;;;;;;;8.98;84.60;98920.66;105414;1319;22259;-84
2023/01/03 10:57:36;;;;;;;8.50;7.20;;;;;;;8.97;84.26;98921.25;104936;1326;22851;-84
2023/01/03 11:00:21;;;;;;;10.00;7.90;;;;;;;8.96;80.82;98927.81;104827;1327;22287;-84
2023/01/03 11:02:50;;;;;;;9.40;8.10;;;;;;;8.92;80.45;98927.52;104857;1326;22203;-84
2023/01/03 11:05:27;;;;;;;8.30;7.50;;;;;;;8.89;79.22;98927.55;104934;1324;22961;-84
2023/01/03 11:08:01;;;;;;;10.40;8.20;;;;;;;8.89;79.16;98923.80;104950;1326;22160;-84
2023/01/03 11:10:33;;;;;;;;;;;;;;;8.91;78.72;98926.11;105442;1320;22366;-84
2023/01/03 11:13:15;;;;;;;9.60;8.30;;;;;;;8.93;78.81;98932.95;104914;1327;22254;-84
2023/01/03 11:15:43;;;;;;;8.70;7.80;;;;;;;8.95;77.30;98928.83;104899;1321;22206;-84
2023/01/03 11:18:21;;;;;;;10.50;9.50;;;;;;;8.97;78.27;98922.59;104923;1326;22228;-84
2023/01/03 11:20:55;;;;;;;11.40;10.30;;;;;;;9.00;77.75;98924.76;104933;1326;22267;-83
2023/01/03 11:23:38;;;;;;;12.10;10.30;;;;;;;8.95;76.98;98926.19;105446;1320;22153;-82
2023/01/03 11:26:40;;;;;;;11.80;10.80;;;;;;;8.83;77.89;98929.52;104920;1327;22211;-85
2023/01/03 11:29:16;;;;;;;13.90;12.50;;;;;;;8.80;78.65;98935.05;104942;1327;23035;-85
2023/01/03 11:32:02;;;;;;;14.90;13.50;;;;;;;9.09;79.76;98937.70;104869;1318;22205;-84
2023/01/03 11:34:56;;;;;;;13.20;12.10;;;;;;;9.32;78.80;98932.55;104982;1326;22095;-84
2023/01/03 11:38:05;;;;;;;27.30;24.30;;;;;;;9.38;78.39;98932.98;104966;1326;22162;-83
2023/01/03 11:40:39;;;;;;;12.80;11.40;;;;;;;9.42;78.07;98924.02;104919;1327;22256;-83
2023/01/03 11:43:36;;;;;;;15.80;13.80;;;;;;;9.42;77.90;98913.91;104897;1327;22221;-84
2023/01/03 11:46:25;;;;;;;11.60;10.40;;;;;;;9.26;77.90;98915.70;104490;1333;22955;-83
2023/01/03 11:49:17;;;;;;;18.60;14.50;;;;;;;9.10;78.02;98924.20;104856;1326;22225;-83
2023/01/03 11:52:01;;;;;;;14.10;12.70;;;;;;;9.09;78.34;98920.21;104824;1308;22233;-83
2023/01/03 11:54:41;;;;;;;17.60;15.90;;;;;;;9.21;78.75;98917.84;104469;1327;21764;-84
2023/01/03 11:57:26;;;;;;;12.00;10.80;;;;;;;9.26;77.84;98911.83;104473;1333;22257;-83
2023/01/03 12:00:01;;;;;;;14.00;12.70;;;;;;;9.14;77.58;98912.55;104507;1332;22873;-84
2023/01/03 12:02:57;;;;;;;15.20;13.60;;;;;;;9.04;77.82;98915.86;104786;1314;22220;-84
2023/01/03 12:05:40;;;;;;;12.50;11.20;;;;;;;8.98;77.96;98907.55;104504;1333;22223;-84
2023/01/03 12:08:11;;;;;;;11.90;10.70;;;;;;;8.99;78.99;98903.67;104837;1326;22215;-84
2023/01/03 12:10:46;;;;;;;11.30;10.00;;;;;;;9.26;78.30;98906.88;104492;1332;22248;-84
2023/01/03 12:13:17;;;;;;;10.50;9.40;;;;;;;9.24;77.97;98908.23;104835;1333;22151;-83
2023/01/03 12:16:01;;;;;;;12.00;10.80;;;;;;;9.11;77.55;98906.99;104815;1333;22210;-83
2023/01/03 12:18:38;;;;;;;11.50;10.40;;;;;;;9.08;77.04;98916.02;104817;1333;21973;-83
2023/01/03 12:21:35;;;;;;;10.60;9.50;;;;;;;9.20;77.19;98910.25;104533;1332;22246;-84
2023/01/03 12:24:17;;;;;;;11.80;10.60;;;;;;;9.88;76.46;98908.09;104969;1327;22280;-84
2023/01/03 12:26:51;;;;;;;10.90;9.80;;;;;;;9.66;76.05;98908.89;105309;1312;22085;-84
2023/01/03 12:29:28;;;;;;;15.00;13.20;;;;;;;9.43;77.09;98905.61;104920;1327;22203;-84
2023/01/03 12:32:05;;;;;;;12.00;10.90;;;;;;;9.30;77.47;98905.11;104788;1327;22189;-83
2023/01/03 12:35:05;;;;;;;10.60;9.60;;;;;;;9.16;76.66;98903.20;104787;1327;22246;-84
2023/01/03 12:37:37;;;;;;;13.40;11.00;;;;;;;9.00;76.94;98908.63;104524;1327;22239;-84
2023/01/03 12:40:20;;;;;;;11.70;9.60;;;;;;;8.90;77.34;98897.52;104856;1327;22222;-84
2023/01/03 12:43:02;;;;;;;11.40;10.30;;;;;;;8.84;77.19;98898.84;104763;1327;22172;-83
2023/01/03 12:46:17;;;;;;;10.00;8.70;;;;;;;8.77;77.05;98896.81;104907;1327;22211;-84
2023/01/03 12:49:04;;;;;;;;;;;;;;;8.69;77.61;98901.19;104485;1333;23177;-84
2023/01/03 12:51:32;;;;;;;11.10;10.00;;;;;;;8.68;77.60;98894.02;104488;1333;22401;-84
2023/01/03 12:54:12;;;;;;;13.30;11.10;;;;;;;8.67;77.86;98892.73;104482;1333;22130;-84
2023/01/03 12:56:51;;;;;;;13.30;10.60;;;;;;;8.70;77.35;98892.05;104493;1333;22154;-84
2023/01/03 12:59:49;;;;;;;11.90;10.40;;;;;;;8.73;77.50;98898.03;104817;1316;22142;-83
2023/01/03 13:02:57;;;;;;;14.00;10.00;;;;;;;9.04;77.10;98901.86;104504;1333;22262;-83
2023/01/03 13:05:49;;;;;;;14.00;10.80;;;;;;;9.67;75.91;98896.61;104516;1333;22320;-83
2023/01/03 13:08:17;;;;;;;13.40;11.00;;;;;;;9.99;76.51;98895.33;104485;1332;22210;-84